Time;durP1;ratioP1;P1;durP2;ratioP2;P2;SDS_P1;SDS_P2;PMS_P1;PMS_P2;Temp;Humidity;BMP_temperature;BMP_pressure;BME280_temperature;BME280_humidity;BME280_pressure;Samples;Min_cycle;Max_cycle;Signal;HPM_P1;HPM_P2
2022/11/29 00:00:46;;;;;;;21.40;14.60;;;14.40;98.20;;;;;;5066233;28;20616;-74
2022/11/29 00:03:12;;;;;;;18.83;13.88;;;14.50;98.20;;;;;;5069302;28;20100;-73
2022/11/29 00:05:37;;;;;;;21.67;13.55;;;14.40;98.10;;;;;;5071456;28;20420;-72
2022/11/29 00:08:03;;;;;;;18.38;12.93;;;14.40;98.20;;;;;;5071397;28;20025;-70
2022/11/29 00:10:29;;;;;;;19.58;13.90;;;14.40;98.20;;;;;;5072424;28;20416;-75
2022/11/29 00:12:54;;;;;;;25.08;14.05;;;14.30;98.10;;;;;;5072364;28;20103;-74
2022/11/29 00:15:20;;;;;;;21.98;13.60;;;14.40;98.20;;;;;;5072136;28;20032;-75
2022/11/29 00:17:45;;;;;;;24.90;13.43;;;14.40;98.20;;;;;;5072380;28;20025;-73
2022/11/29 00:20:11;;;;;;;19.00;13.60;;;14.30;98.10;;;;;;5072181;28;20032;-74
2022/11/29 00:22:37;;;;;;;23.55;13.98;;;14.30;98.20;;;;;;5072103;28;20032;-74
2022/11/29 00:25:04;;;;;;;19.90;13.18;;;14.30;98.20;;;;;;5072053;28;20163;-70
2022/11/29 00:27:30;;;;;;;22.83;13.43;;;14.30;98.30;;;;;;5069114;28;20108;-69
2022/11/29 00:29:55;;;;;;;19.33;13.48;;;14.20;98.20;;;;;;5064231;28;20115;-70
2022/11/29 00:32:21;;;;;;;20.92;13.38;;;14.30;98.20;;;;;;5052202;28;20044;-72
2022/11/29 00:34:47;;;;;;;27.55;14.45;;;14.20;98.00;;;;;;5052572;28;20021;-71
2022/11/29 00:37:12;;;;;;;22.60;13.95;;;14.20;98.10;;;;;;5055694;28;20222;-72
2022/11/29 00:39:38;;;;;;;20.70;13.50;;;14.20;98.20;;;;;;5055713;28;20544;-71
2022/11/29 00:42:03;;;;;;;21.63;13.88;;;14.20;98.10;;;;;;5074062;28;20032;-70
2022/11/29 00:44:29;;;;;;;19.63;12.68;;;14.30;98.30;;;;;;5074535;28;20470;-71
2022/11/29 00:46:54;;;;;;;18.20;13.80;;;14.20;98.10;;;;;;5055951;28;20056;-72
2022/11/29 00:49:20;;;;;;;17.70;12.95;;;14.20;98.20;;;;;;5054227;28;20025;-70
2022/11/29 00:51:46;;;;;;;18.05;13.25;;;14.20;98.10;;;;;;5055377;28;20017;-70
2022/11/29 00:54:12;;;;;;;18.65;14.30;;;14.10;98.10;;;;;;5054655;28;20049;-72
2022/11/29 00:56:37;;;;;;;19.60;12.35;;;14.20;98.00;;;;;;5055568;28;20029;-70
2022/11/29 00:59:03;;;;;;;20.67;14.18;;;14.10;98.00;;;;;;5055179;28;20505;-73
2022/11/29 01:01:28;;;;;;;20.20;14.20;;;14.10;98.20;;;;;;5054909;28;20032;-76
2022/11/29 01:03:54;;;;;;;21.70;13.18;;;14.10;98.20;;;;;;5054971;28;20025;-70
2022/11/29 01:06:19;;;;;;;20.58;13.98;;;14.10;98.00;;;;;;5053769;28;20072;-69
2022/11/29 01:08:46;;;;;;;21.65;13.45;;;14.10;98.00;;;;;;5058287;28;20013;-70
2022/11/29 01:11:18;;;;;;;20.17;13.63;;;14.00;97.90;;;;;;5063993;28;20082;-75
2022/11/29 01:13:44;;;;;;;20.67;12.85;;;14.00;97.90;;;;;;5055319;28;20028;-73
2022/11/29 01:16:10;;;;;;;20.30;14.50;;;14.00;98.10;;;;;;5073093;28;20025;-75
2022/11/29 01:18:36;;;;;;;17.52;12.65;;;14.00;98.00;;;;;;5074978;28;20109;-72
2022/11/29 01:21:08;;;;;;;16.70;13.07;;;14.00;97.90;;;;;;5075245;28;20092;-76
2022/11/29 01:23:35;;;;;;;16.95;12.93;;;13.90;97.90;;;;;;5075025;28;20028;-75
2022/11/29 01:26:07;;;;;;;17.83;13.00;;;14.00;97.90;;;;;;5074765;28;20029;-75
2022/11/29 01:28:33;;;;;;;17.48;13.00;;;13.90;98.10;;;;;;5074859;28;20035;-76
2022/11/29 01:31:03;;;;;;;17.27;13.02;;;13.90;97.90;;;;;;5074585;28;20040;-76
2022/11/29 01:33:29;;;;;;;21.55;13.80;;;14.00;98.00;;;;;;5074781;28;20438;-76
2022/11/29 01:35:55;;;;;;;18.80;13.43;;;13.90;98.00;;;;;;5074390;28;20060;-76
2022/11/29 01:38:21;;;;;;;18.33;13.90;;;13.90;98.10;;;;;;5074665;28;20013;-74
2022/11/29 01:41:23;;;;;;;20.52;13.65;;;13.90;98.00;;;;;;5074618;28;20024;-75
2022/11/29 01:44:03;;;;;;;22.77;14.80;;;13.90;97.90;;;;;;5074202;28;20037;-76
2022/11/29 01:46:32;;;;;;;22.05;13.90;;;13.80;98.00;;;;;;5074065;28;20072;-76
2022/11/29 01:49:02;;;;;;;20.77;13.07;;;13.80;97.90;;;;;;5074451;28;20048;-76
2022/11/29 01:51:29;;;;;;;17.13;13.48;;;13.80;97.90;;;;;;5074179;28;20082;-75
2022/11/29 01:53:55;;;;;;;21.00;14.80;;;13.80;97.80;;;;;;5073293;28;20027;-76
2022/11/29 01:56:22;;;;;;;20.73;14.35;;;13.80;97.70;;;;;;5074238;28;20478;-76
2022/11/29 01:58:47;;;;;;;18.90;14.30;;;13.80;97.90;;;;;;5074342;28;20444;-76
2022/11/29 02:01:13;;;;;;;22.85;14.18;;;13.80;97.90;;;;;;5074234;28;20054;-75
2022/11/29 02:03:39;;;;;;;23.15;13.57;;;13.80;97.90;;;;;;5073807;28;20020;-76
2022/11/29 02:06:06;;;;;;;20.27;13.70;;;13.80;97.80;;;;;;5074056;28;20098;-76
2022/11/29 02:08:38;;;;;;;15.98;12.25;;;13.80;97.70;;;;;;5074206;28;20046;-76
2022/11/29 02:11:22;;;;;;;16.70;11.95;;;13.70;97.80;;;;;;5073932;28;20101;-74
2022/11/29 02:14:16;;;;;;;17.00;12.50;;;13.70;97.90;;;;;;5074153;28;20123;-75
2022/11/29 02:16:56;;;;;;;16.00;11.73;;;13.70;97.70;;;;;;5073608;28;20032;-75
2022/11/29 02:20:09;;;;;;;15.60;12.30;;;13.70;97.60;;;;;;5073688;28;20119;-74
2022/11/29 02:22:37;;;;;;;21.60;13.48;;;13.60;97.60;;;;;;5073866;28;20017;-69
2022/11/29 02:25:08;;;;;;;21.00;13.88;;;13.60;97.70;;;;;;5073760;28;20047;-69
2022/11/29 02:27:59;;;;;;;21.90;13.55;;;13.60;97.70;;;;;;5072452;28;20505;-70
2022/11/29 02:30:51;;;;;;;20.80;13.80;;;13.50;97.70;;;;;;5073689;28;20036;-69
2022/11/29 02:33:51;;;;;;;18.05;12.80;;;13.50;97.80;;;;;;5073442;28;20050;-68
2022/11/29 02:36:45;;;;;;;16.83;12.18;;;13.40;97.60;;;;;;5073429;28;20071;-69
2022/11/29 02:39:17;;;;;;;15.32;12.40;;;13.50;97.70;;;;;;5073123;28;20115;-69
2022/11/29 02:42:09;;;;;;;16.42;11.75;;;13.50;97.60;;;;;;5072052;28;20052;-69
2022/11/29 02:45:01;;;;;;;16.02;11.52;;;13.50;97.60;;;;;;5073381;28;20028;-69
2022/11/29 02:47:45;;;;;;;;;;;13.50;97.50;;;;;;5073342;28;20033;-68
2022/11/29 02:50:16;;;;;;;16.33;11.48;;;13.50;97.20;;;;;;5073453;28;20258;-69
2022/11/29 02:52:58;;;;;;;18.00;11.50;;;13.50;97.40;;;;;;5073252;28;20122;-69
2022/11/29 02:55:33;;;;;;;14.98;11.77;;;13.40;97.40;;;;;;5074145;28;20035;-68
2022/11/29 02:58:12;;;;;;;15.63;10.65;;;13.30;97.50;;;;;;5072203;28;20028;-73
2022/11/29 03:00:43;;;;;;;13.77;10.85;;;13.30;97.50;;;;;;5073340;28;20462;-72
2022/11/29 03:03:35;;;;;;;13.30;11.05;;;13.30;97.40;;;;;;5073157;28;20032;-69
2022/11/29 03:06:12;;;;;;;13.90;10.93;;;13.30;97.40;;;;;;5073003;28;20078;-70
2022/11/29 03:09:05;;;;;;;12.73;10.15;;;13.30;97.70;;;;;;5072989;28;20466;-70
2022/11/29 03:11:36;;;;;;;12.35;10.57;;;13.10;97.40;;;;;;5073074;28;20052;-70
2022/11/29 03:14:16;;;;;;;13.40;9.90;;;13.20;97.40;;;;;;5073187;28;20066;-71
2022/11/29 03:17:03;;;;;;;13.30;10.00;;;13.20;97.30;;;;;;5072385;28;20028;-70
2022/11/29 03:19:53;;;;;;;11.00;9.90;;;13.10;97.30;;;;;;5072936;28;20107;-72
2022/11/29 03:22:31;;;;;;;10.73;9.57;;;13.20;97.40;;;;;;5072926;28;20024;-74
2022/11/29 03:24:57;;;;;;;10.75;9.55;;;13.20;97.40;;;;;;5065139;28;20020;-76
2022/11/29 03:27:40;;;;;;;11.00;9.27;;;13.20;97.50;;;;;;5066236;28;20389;-75
2022/11/29 03:30:10;;;;;;;9.93;8.77;;;13.20;97.40;;;;;;5069005;28;20087;-75
2022/11/29 03:33:04;;;;;;;11.13;9.80;;;13.20;97.40;;;;;;5052894;28;20025;-75
2022/11/29 03:35:30;;;;;;;11.02;9.40;;;13.20;97.30;;;;;;5052618;28;20462;-75
2022/11/29 03:38:12;;;;;;;12.00;9.25;;;13.20;97.30;;;;;;5052567;28;20029;-74
2022/11/29 03:41:03;;;;;;;9.93;8.93;;;13.20;97.40;;;;;;5051146;28;20055;-75
2022/11/29 03:43:40;;;;;;;10.20;9.20;;;13.10;97.30;;;;;;5052524;28;20033;-76
2022/11/29 03:46:27;;;;;;;10.40;8.55;;;13.20;97.30;;;;;;5051135;28;20159;-75
2022/11/29 03:49:02;;;;;;;9.93;8.93;;;13.20;97.20;;;;;;5051337;28;20032;-74
2022/11/29 03:51:47;;;;;;;11.20;9.38;;;13.10;97.20;;;;;;5052506;28;20371;-74
2022/11/29 03:54:20;;;;;;;9.65;8.65;;;13.10;97.30;;;;;;5052504;28;20104;-75
2022/11/29 03:56:46;;;;;;;9.25;8.35;;;13.10;97.20;;;;;;5052614;28;20057;-74
2022/11/29 03:59:17;;;;;;;9.00;8.10;;;13.00;97.20;;;;;;5052083;28;20044;-76
2022/11/29 04:02:18;;;;;;;10.13;9.18;;;13.00;97.10;;;;;;5052214;28;20126;-75
2022/11/29 04:05:03;;;;;;;10.50;8.88;;;13.00;97.00;;;;;;5060930;28;20043;-75
2022/11/29 04:07:46;;;;;;;11.60;9.98;;;12.90;97.20;;;;;;5052147;28;20033;-73
2022/11/29 04:10:25;;;;;;;12.25;9.10;;;12.80;97.00;;;;;;5053309;28;20028;-75
2022/11/29 04:13:00;;;;;;;11.38;9.13;;;12.80;97.10;;;;;;5056185;28;20068;-73
2022/11/29 04:15:51;;;;;;;11.23;8.63;;;12.80;97.30;;;;;;5054670;28;20021;-75
2022/11/29 04:18:48;;;;;;;11.18;8.30;;;12.80;97.30;;;;;;5056188;28;20024;-76
2022/11/29 04:21:26;;;;;;;13.77;9.57;;;12.80;97.10;;;;;;5055350;28;20140;-71
2022/11/29 04:24:16;;;;;;;12.57;8.93;;;12.70;97.10;;;;;;5055877;28;20048;-70
2022/11/29 04:27:07;;;;;;;11.10;8.40;;;12.70;97.40;;;;;;5055795;28;20037;-69
2022/11/29 04:30:02;;;;;;;12.95;8.57;;;12.80;97.00;;;;;;5055532;28;20025;-70
2022/11/29 04:32:49;;;;;;;11.57;8.32;;;12.70;97.00;;;;;;5055908;28;20482;-72
2022/11/29 04:35:37;;;;;;;9.75;8.55;;;12.60;97.20;;;;;;5055743;28;20017;-73
2022/11/29 04:38:50;;;;;;;13.43;8.82;;;12.70;97.10;;;;;;5055985;28;20021;-74
2022/11/29 04:41:22;;;;;;;;;;;12.60;97.10;;;;;;5053826;28;20134;-70
2022/11/29 04:44:05;;;;;;;10.50;8.20;;;12.70;96.80;;;;;;5058286;28;19940;-71
2022/11/29 04:46:54;;;;;;;9.98;8.15;;;12.60;97.10;;;;;;5058939;28;20060;-73
2022/11/29 04:49:29;;;;;;;13.48;8.43;;;12.70;97.00;;;;;;5065669;28;20025;-72
2022/11/29 04:52:16;;;;;;;15.45;8.63;;;12.60;97.00;;;;;;5075282;28;20408;-71
2022/11/29 04:54:59;;;;;;;14.77;8.20;;;12.60;96.90;;;;;;5075073;28;20397;-71
2022/11/29 04:57:34;;;;;;;8.60;7.40;;;12.60;96.90;;;;;;5075338;28;20096;-73
2022/11/29 05:00:11;;;;;;;11.30;8.05;;;12.70;96.90;;;;;;5075509;28;20035;-72
2022/11/29 05:02:52;;;;;;;11.25;7.47;;;12.50;96.70;;;;;;5075361;28;20470;-73
2022/11/29 05:05:38;;;;;;;12.13;7.68;;;12.40;96.80;;;;;;5075095;28;20078;-72
2022/11/29 05:08:31;;;;;;;16.35;8.27;;;12.50;96.80;;;;;;5075325;28;20405;-70
2022/11/29 05:11:14;;;;;;;14.18;8.23;;;12.40;96.80;;;;;;5075082;28;20086;-72
2022/11/29 05:14:03;;;;;;;9.18;8.23;;;12.40;96.90;;;;;;5075172;28;20017;-71
2022/11/29 05:16:53;;;;;;;12.18;8.77;;;12.40;96.80;;;;;;5074942;28;20102;-71
2022/11/29 05:19:52;;;;;;;14.52;9.70;;;12.40;96.80;;;;;;5075065;28;20063;-68
2022/11/29 05:22:47;;;;;;;11.93;8.98;;;12.30;96.90;;;;;;5074665;28;20072;-68
2022/11/29 05:25:21;;;;;;;12.35;8.70;;;12.40;96.80;;;;;;5074536;28;20019;-68
2022/11/29 05:28:07;;;;;;;11.32;7.97;;;12.40;96.80;;;;;;5074743;28;20079;-69
2022/11/29 05:31:05;;;;;;;11.32;7.93;;;12.30;96.70;;;;;;5074859;28;20029;-69
2022/11/29 05:33:54;;;;;;;11.00;7.18;;;12.40;96.60;;;;;;5074649;28;20047;-69
2022/11/29 05:36:38;;;;;;;9.20;6.30;;;12.40;94.70;;;;;;5074725;28;20031;-69
2022/11/29 05:39:48;;;;;;;8.10;6.85;;;12.40;94.50;;;;;;5075008;28;20024;-69
2022/11/29 05:42:35;;;;;;;6.60;5.82;;;12.60;94.20;;;;;;5073052;28;20029;-69
2022/11/29 05:45:39;;;;;;;7.80;6.30;;;12.70;93.90;;;;;;5058315;28;20032;-70
2022/11/29 05:48:16;;;;;;;7.70;6.45;;;12.90;94.00;;;;;;5072523;28;20044;-72
2022/11/29 05:50:48;;;;;;;6.75;5.97;;;12.90;93.80;;;;;;5054040;28;20068;-70
2022/11/29 05:53:54;;;;;;;9.07;6.20;;;13.00;93.60;;;;;;5053951;28;20099;-69
2022/11/29 05:56:31;;;;;;;9.18;6.68;;;13.00;93.50;;;;;;5050593;28;20422;-69
2022/11/29 05:59:06;;;;;;;8.02;7.20;;;13.10;93.50;;;;;;5053984;28;20015;-70
2022/11/29 06:01:50;;;;;;;10.13;7.60;;;13.10;93.40;;;;;;5058780;28;20036;-73
2022/11/29 06:04:20;;;;;;;11.73;8.05;;;13.10;93.40;;;;;;5072916;28;20104;-69
2022/11/29 06:07:10;;;;;;;8.70;7.88;;;13.10;93.40;;;;;;5072955;28;20448;-69
2022/11/29 06:10:31;;;;;;;7.28;6.53;;;13.10;93.50;;;;;;5072706;28;20028;-69
2022/11/29 06:13:09;;;;;;;9.95;6.78;;;13.10;93.40;;;;;;5073571;28;20024;-68
2022/11/29 06:15:56;;;;;;;8.65;7.07;;;13.20;93.40;;;;;;5074890;28;20363;-69
2022/11/29 06:18:27;;;;;;;8.38;6.15;;;13.10;93.30;;;;;;5074499;28;20029;-71
2022/11/29 06:21:41;;;;;;;7.90;6.85;;;13.10;93.30;;;;;;5065305;28;20037;-71
2022/11/29 06:24:36;;;;;;;9.25;7.00;;;13.10;93.30;;;;;;5054452;28;20051;-72
2022/11/29 06:27:36;;;;;;;11.15;7.80;;;13.10;93.40;;;;;;5053457;28;20127;-71
2022/11/29 06:30:14;;;;;;;10.00;7.53;;;13.10;93.40;;;;;;5056964;28;20033;-70
2022/11/29 06:32:47;;;;;;;11.35;8.20;;;13.10;93.50;;;;;;5063258;28;20125;-73
2022/11/29 06:35:39;;;;;;;9.98;7.47;;;13.20;93.50;;;;;;5051388;28;20508;-67
2022/11/29 06:38:22;;;;;;;10.93;7.57;;;13.10;93.60;;;;;;5051973;28;20028;-67
2022/11/29 06:40:50;;;;;;;9.57;8.10;;;13.10;93.70;;;;;;5055062;28;20028;-72
2022/11/29 06:43:16;;;;;;;12.30;8.27;;;13.20;93.80;;;;;;5055419;28;20027;-68
2022/11/29 06:45:50;;;;;;;10.25;8.48;;;13.00;93.80;;;;;;5048435;28;20413;-69
2022/11/29 06:48:24;;;;;;;14.38;8.88;;;13.00;94.00;;;;;;5049834;28;20479;-69
2022/11/29 06:51:20;;;;;;;10.80;7.50;;;12.80;93.80;;;;;;5059822;28;20032;-72
2022/11/29 06:53:57;;;;;;;12.15;8.45;;;12.80;95.50;;;;;;5055962;28;20037;-74
2022/11/29 06:56:50;;;;;;;13.82;9.10;;;12.80;95.40;;;;;;5057161;28;20090;-69
2022/11/29 06:59:37;;;;;;;13.00;9.30;;;12.70;95.80;;;;;;5056250;28;20385;-68
2022/11/29 07:02:18;;;;;;;20.10;9.93;;;12.70;96.10;;;;;;5058596;28;20410;-71
2022/11/29 07:05:22;;;;;;;18.00;10.20;;;12.70;96.10;;;;;;5058294;28;20035;-73
2022/11/29 07:07:49;;;;;;;11.90;9.48;;;12.70;96.10;;;;;;5057663;28;20044;-71
2022/11/29 07:10:19;;;;;;;11.85;9.57;;;12.70;95.20;;;;;;5050593;28;20041;-74
2022/11/29 07:12:46;;;;;;;16.38;8.73;;;12.70;95.20;;;;;;5048750;28;20509;-72
2022/11/29 07:15:17;;;;;;;12.82;8.77;;;12.70;95.00;;;;;;5056838;28;20363;-70
2022/11/29 07:18:13;;;;;;;16.38;8.95;;;12.60;95.30;;;;;;5067409;28;20493;-72
2022/11/29 07:21:11;;;;;;;17.60;8.25;;;12.50;96.10;;;;;;5058134;28;20067;-72
2022/11/29 07:23:37;;;;;;;18.42;8.60;;;12.60;96.50;;;;;;5054229;28;20108;-72
2022/11/29 07:26:34;;;;;;;12.25;9.23;;;12.60;96.00;;;;;;5051158;28;20472;-71
2022/11/29 07:29:07;;;;;;;14.60;9.32;;;12.50;96.00;;;;;;5052326;28;20060;-72
2022/11/29 07:31:45;;;;;;;21.50;10.27;;;12.60;96.20;;;;;;5054037;28;20017;-71
2022/11/29 07:34:35;;;;;;;15.15;9.50;;;12.60;96.10;;;;;;5056913;28;20509;-71
2022/11/29 07:37:19;;;;;;;17.52;9.20;;;12.50;96.10;;;;;;5066118;28;20034;-71
2022/11/29 07:39:52;;;;;;;13.85;9.52;;;12.50;96.10;;;;;;5065217;28;20013;-72
2022/11/29 07:42:37;;;;;;;11.23;9.27;;;12.60;95.30;;;;;;5054908;28;20515;-71
2022/11/29 07:45:16;;;;;;;13.57;10.98;;;12.50;94.50;;;;;;5053514;28;20025;-70
2022/11/29 07:47:41;;;;;;;13.15;10.43;;;12.10;94.00;;;;;;5056266;28;20033;-74
2022/11/29 07:50:09;;;;;;;12.85;10.40;;;12.00;94.10;;;;;;5057045;28;20475;-71
2022/11/29 07:52:34;;;;;;;18.55;14.75;;;12.00;94.20;;;;;;5055960;28;20033;-72
2022/11/29 07:55:01;;;;;;;23.73;16.40;;;11.90;94.20;;;;;;5056567;28;20092;-75
2022/11/29 07:57:26;;;;;;;16.00;13.38;;;11.80;94.20;;;;;;5056498;28;20025;-74
2022/11/29 07:59:52;;;;;;;17.90;13.40;;;11.70;94.20;;;;;;5056596;28;20025;-71
2022/11/29 08:02:30;;;;;;;24.05;15.93;;;11.80;94.40;;;;;;5056561;28;20025;-71
2022/11/29 08:04:56;;;;;;;21.58;14.27;;;11.70;94.40;;;;;;5056168;28;20108;-76
2022/11/29 08:07:22;;;;;;;28.33;15.50;;;11.80;94.40;;;;;;5056016;28;20040;-71
2022/11/29 08:09:48;;;;;;;26.85;18.67;;;11.60;94.40;;;;;;5055595;28;20493;-71
2022/11/29 08:12:14;;;;;;;23.63;14.65;;;11.60;94.60;;;;;;5060584;28;20029;-71
2022/11/29 08:14:39;;;;;;;17.45;13.40;;;11.70;94.90;;;;;;5073364;28;20027;-71
2022/11/29 08:17:05;;;;;;;20.83;14.30;;;11.60;94.60;;;;;;5071488;28;20063;-73
2022/11/29 08:19:30;;;;;;;17.92;11.75;;;11.30;94.80;;;;;;5059013;28;20061;-73
2022/11/29 08:21:56;;;;;;;20.23;11.50;;;11.20;95.00;;;;;;5059832;28;20025;-73
2022/11/29 08:24:21;;;;;;;15.38;11.75;;;11.10;95.10;;;;;;5060740;28;20355;-71
2022/11/29 08:26:47;;;;;;;16.77;11.00;;;11.10;95.30;;;;;;5069116;28;20060;-74
2022/11/29 08:29:13;;;;;;;15.82;12.73;;;11.00;95.40;;;;;;5065744;28;20067;-74
2022/11/29 08:31:38;;;;;;;14.88;11.27;;;10.90;95.60;;;;;;5055806;28;20025;-73
2022/11/29 08:34:05;;;;;;;12.57;10.55;;;10.90;95.70;;;;;;5058069;28;20390;-71
2022/11/29 08:36:31;;;;;;;15.77;10.60;;;10.80;95.60;;;;;;5076377;28;20075;-73
2022/11/29 08:38:56;;;;;;;14.43;10.00;;;10.90;95.60;;;;;;5075248;28;20350;-74
2022/11/29 08:41:22;;;;;;;14.77;11.25;;;10.80;95.80;;;;;;5072561;28;20501;-73
2022/11/29 08:43:48;;;;;;;20.17;12.93;;;10.80;96.00;;;;;;5054690;28;20033;-73
2022/11/29 08:46:13;;;;;;;16.42;12.15;;;10.90;95.70;;;;;;5056150;28;20037;-73
2022/11/29 08:48:39;;;;;;;16.77;13.85;;;10.90;95.70;;;;;;5062798;28;20021;-71
2022/11/29 08:51:05;;;;;;;15.30;11.73;;;10.90;95.70;;;;;;5064568;28;20036;-72
2022/11/29 08:53:50;;;;;;;14.00;11.38;;;11.00;95.60;;;;;;5075863;28;20074;-72
2022/11/29 08:56:17;;;;;;;13.98;10.93;;;11.00;95.70;;;;;;5074293;28;20492;-75
2022/11/29 08:58:44;;;;;;;11.77;9.90;;;11.00;95.80;;;;;;5071130;28;20009;-70
2022/11/29 09:01:15;;;;;;;12.75;10.30;;;11.00;95.80;;;;;;5074149;28;20044;-71
2022/11/29 09:04:01;;;;;;;12.32;10.00;;;10.90;95.90;;;;;;5080349;28;20052;-71
2022/11/29 09:06:30;;;;;;;12.63;9.73;;;10.90;95.90;;;;;;5055253;28;20056;-71
2022/11/29 09:08:56;;;;;;;12.52;10.25;;;10.90;96.00;;;;;;5072502;28;20017;-71
2022/11/29 09:11:24;;;;;;;12.68;9.35;;;10.90;96.00;;;;;;5075418;28;20043;-70
2022/11/29 09:13:52;;;;;;;10.75;9.73;;;10.80;96.10;;;;;;5073935;28;20020;-70
2022/11/29 09:16:22;;;;;;;11.68;10.48;;;10.90;96.10;;;;;;5068242;28;20025;-70
2022/11/29 09:18:48;;;;;;;11.55;10.35;;;10.90;96.40;;;;;;5076038;28;20070;-70
2022/11/29 09:21:15;;;;;;;12.25;10.48;;;10.90;96.60;;;;;;5080962;28;20029;-71
2022/11/29 09:23:42;;;;;;;11.63;10.38;;;10.90;96.60;;;;;;5075947;28;20038;-70
2022/11/29 09:26:09;;;;;;;14.73;10.98;;;10.90;96.60;;;;;;5081912;28;20085;-71
2022/11/29 09:28:35;;;;;;;13.60;11.98;;;10.90;96.50;;;;;;5074257;28;20469;-75
2022/11/29 09:31:11;;;;;;;16.05;12.30;;;10.80;96.80;;;;;;5074586;28;20377;-75
2022/11/29 09:33:38;;;;;;;16.35;12.27;;;10.90;96.90;;;;;;5067216;28;20469;-75
2022/11/29 09:36:04;;;;;;;15.93;11.80;;;10.90;96.90;;;;;;5054507;28;20090;-75
2022/11/29 09:38:29;;;;;;;17.33;11.52;;;10.90;97.10;;;;;;5067006;28;20033;-75
2022/11/29 09:41:01;;;;;;;16.27;12.18;;;10.90;96.90;;;;;;5058226;28;20040;-76
2022/11/29 09:43:53;;;;;;;20.33;13.88;;;10.90;97.00;;;;;;5054717;28;20017;-76
2022/11/29 09:46:22;;;;;;;19.00;14.60;;;10.90;97.10;;;;;;5065760;28;20078;-73
2022/11/29 09:48:57;;;;;;;17.23;14.32;;;11.00;97.10;;;;;;5076784;28;20106;-76
2022/11/29 09:51:53;;;;;;;19.98;13.55;;;11.00;97.20;;;;;;5063351;28;20060;-75
2022/11/29 09:54:41;;;;;;;17.45;13.05;;;11.00;97.30;;;;;;5058467;28;20537;-76
2022/11/29 09:57:07;;;;;;;15.80;13.52;;;11.00;97.20;;;;;;5061651;28;20033;-75
2022/11/29 09:59:38;;;;;;;20.10;14.10;;;11.10;97.40;;;;;;5057895;28;20024;-75
2022/11/29 10:02:15;;;;;;;18.50;13.10;;;11.00;97.30;;;;;;5072178;28;20039;-75
2022/11/29 10:04:47;;;;;;;16.90;14.20;;;11.00;97.30;;;;;;5055296;28;20090;-75
2022/11/29 10:07:22;;;;;;;20.57;13.17;;;11.00;97.20;;;;;;5065512;28;20085;-73
2022/11/29 10:09:54;;;;;;;17.85;12.43;;;11.00;97.30;;;;;;5071529;28;20303;-71
2022/11/29 10:12:34;;;;;;;17.90;13.82;;;11.00;97.30;;;;;;5071521;28;20082;-71
2022/11/29 10:15:00;;;;;;;19.67;14.43;;;11.10;97.40;;;;;;5066557;28;20036;-71
2022/11/29 10:17:50;;;;;;;16.70;13.48;;;11.00;97.40;;;;;;5068094;28;20519;-72
2022/11/29 10:20:25;;;;;;;25.50;16.15;;;11.10;97.50;;;;;;5056745;28;20029;-73
2022/11/29 10:23:01;;;;;;;28.40;16.70;;;11.20;97.20;;;;;;5060867;28;20526;-74
2022/11/29 10:25:36;;;;;;;30.27;17.27;;;11.10;97.10;;;;;;5051681;28;20112;-74
2022/11/29 10:28:03;;;;;;;30.20;17.75;;;11.20;97.20;;;;;;5060634;28;20036;-71
2022/11/29 10:30:32;;;;;;;27.92;18.48;;;11.40;96.90;;;;;;5054829;28;20522;-71
2022/11/29 10:32:59;;;;;;;27.02;16.77;;;11.40;96.90;;;;;;5066814;28;20044;-72
2022/11/29 10:35:25;;;;;;;19.15;14.55;;;11.40;97.00;;;;;;5068719;28;20413;-74
2022/11/29 10:37:54;;;;;;;15.90;12.88;;;11.40;97.00;;;;;;5058130;28;20028;-71
2022/11/29 10:40:24;;;;;;;19.38;13.57;;;11.40;97.30;;;;;;5054944;28;20474;-74
2022/11/29 10:42:52;;;;;;;16.27;12.68;;;11.30;97.10;;;;;;5061306;28;20017;-71
2022/11/29 10:45:20;;;;;;;18.25;12.43;;;11.30;97.00;;;;;;5054839;28;20043;-72
2022/11/29 10:47:48;;;;;;;18.10;12.98;;;11.50;96.80;;;;;;5052584;28;20473;-73
2022/11/29 10:50:21;;;;;;;18.38;14.43;;;11.70;96.70;;;;;;5059704;28;20021;-72
2022/11/29 10:52:47;;;;;;;20.42;14.98;;;11.60;96.70;;;;;;5059776;28;20044;-73
2022/11/29 10:55:14;;;;;;;16.17;12.27;;;11.80;96.70;;;;;;5067229;28;20017;-72
2022/11/29 10:58:15;;;;;;;20.92;14.65;;;11.90;96.70;;;;;;5070743;28;20032;-74
2022/11/29 11:00:45;;;;;;;15.95;13.43;;;11.80;96.80;;;;;;5061373;28;20037;-74
2022/11/29 11:03:17;;;;;;;17.33;12.85;;;11.90;96.90;;;;;;5052866;28;20033;-74
2022/11/29 11:06:14;;;;;;;14.98;12.73;;;11.90;97.00;;;;;;5064272;28;20036;-75
2022/11/29 11:09:11;;;;;;;16.33;12.93;;;11.80;97.00;;;;;;5057225;28;20102;-71
2022/11/29 11:11:38;;;;;;;17.42;12.88;;;11.90;97.30;;;;;;5059383;28;20165;-76
2022/11/29 11:14:27;;;;;;;14.45;12.07;;;11.90;97.20;;;;;;5068378;28;20025;-73
2022/11/29 11:16:53;;;;;;;14.20;11.30;;;11.80;97.30;;;;;;5076558;28;20380;-76
2022/11/29 11:19:27;;;;;;;16.15;11.85;;;11.70;97.40;;;;;;5062050;28;20029;-74
2022/11/29 11:21:57;;;;;;;13.73;11.38;;;11.80;97.60;;;;;;5058698;28;20028;-75
2022/11/29 11:24:33;;;;;;;12.10;10.85;;;12.00;97.70;;;;;;5060076;28;20013;-75
2022/11/29 11:26:59;;;;;;;13.18;11.52;;;12.00;97.40;;;;;;5080427;28;20033;-72
2022/11/29 11:29:32;;;;;;;11.65;10.38;;;12.00;97.30;;;;;;5071830;28;20040;-74
2022/11/29 11:31:59;;;;;;;13.30;12.00;;;12.00;97.50;;;;;;5071985;28;20419;-74
2022/11/29 11:34:27;;;;;;;14.57;12.45;;;12.00;97.50;;;;;;5072736;28;20038;-75
2022/11/29 11:37:12;;;;;;;16.25;11.18;;;11.80;97.50;;;;;;5074138;28;20112;-72
2022/11/29 11:39:38;;;;;;;17.00;15.18;;;11.90;97.60;;;;;;5061065;28;20027;-73
2022/11/29 11:44:51;;;;;;;14.80;13.30;;;12.00;97.60;;;;;;5068430;28;20069;-75
2022/11/29 11:47:21;;;;;;;16.13;14.20;;;12.00;97.40;;;;;;5063007;28;20476;-75
2022/11/29 11:50:02;;;;;;;15.65;13.25;;;12.00;97.70;;;;;;5058780;28;20029;-76
2022/11/29 11:52:56;;;;;;;17.63;13.93;;;11.90;97.40;;;;;;5058867;28;20115;-69
2022/11/29 11:55:24;;;;;;;17.73;13.95;;;11.90;97.50;;;;;;5068590;28;20037;-75
2022/11/29 11:58:14;;;;;;;16.83;14.38;;;12.00;97.70;;;;;;5071121;28;20039;-76
2022/11/29 12:00:52;;;;;;;22.20;14.82;;;12.00;97.80;;;;;;5053380;28;20029;-75
2022/11/29 12:03:44;;;;;;;21.20;14.60;;;12.00;97.70;;;;;;5060691;28;20029;-70
2022/11/29 12:06:37;;;;;;;20.80;14.13;;;12.00;97.90;;;;;;5063441;28;20173;-70
2022/11/29 12:09:13;;;;;;;20.42;15.43;;;12.10;98.00;;;;;;5066349;28;20036;-70
2022/11/29 12:12:03;;;;;;;19.23;15.70;;;12.10;97.90;;;;;;5065562;28;20013;-72
2022/11/29 12:14:35;;;;;;;21.95;15.80;;;11.90;98.10;;;;;;5052838;28;20417;-71
2022/11/29 12:17:21;;;;;;;23.20;16.65;;;11.70;98.50;;;;;;5066282;28;20099;-71
2022/11/29 12:20:19;;;;;;;20.65;15.25;;;11.60;98.70;;;;;;5060236;28;20405;-71
2022/11/29 12:23:04;;;;;;;20.38;16.52;;;11.70;98.60;;;;;;5063300;28;20035;-72
2022/11/29 12:25:34;;;;;;;18.63;15.55;;;11.80;98.70;;;;;;5057880;28;20025;-69
2022/11/29 12:28:00;;;;;;;20.80;15.10;;;12.10;98.50;;;;;;5056060;28;20071;-70
2022/11/29 12:30:25;;;;;;;21.70;16.38;;;12.20;98.30;;;;;;5052203;28;20098;-70
2022/11/29 12:33:25;;;;;;;22.98;15.95;;;12.30;98.10;;;;;;5058407;28;20544;-70
2022/11/29 12:36:27;;;;;;;20.65;15.65;;;12.30;98.20;;;;;;5058114;28;20021;-70
2022/11/29 12:38:59;;;;;;;20.33;13.82;;;12.30;98.10;;;;;;5068773;28;20086;-69
2022/11/29 12:41:39;;;;;;;23.42;13.60;;;12.30;98.50;;;;;;5062718;28;20104;-71
2022/11/29 12:44:29;;;;;;;24.88;13.85;;;12.40;98.60;;;;;;5059665;28;20054;-71
2022/11/29 12:47:32;;;;;;;18.15;13.73;;;12.40;98.50;;;;;;5065756;28;20062;-73
2022/11/29 12:50:20;;;;;;;16.73;14.23;;;12.40;98.60;;;;;;5070125;28;20111;-71
2022/11/29 12:53:15;;;;;;;19.27;13.00;;;12.50;98.40;;;;;;5063102;28;20116;-71
2022/11/29 12:56:00;;;;;;;21.98;11.13;;;12.50;98.70;;;;;;5065986;28;20083;-73
2022/11/29 12:58:51;;;;;;;18.15;11.80;;;12.60;98.90;;;;;;5061369;28;20032;-74
2022/11/29 13:01:50;;;;;;;22.50;12.65;;;12.50;99.20;;;;;;5062216;28;20470;-73
2022/11/29 13:04:25;;;;;;;21.63;13.75;;;12.70;99.60;;;;;;5059110;28;20041;-74
2022/11/29 13:07:07;;;;;;;16.90;14.02;;;12.70;98.90;;;;;;5057567;28;20482;-73
2022/11/29 13:09:57;;;;;;;25.17;17.73;;;12.60;98.50;;;;;;5057633;28;20036;-72
2022/11/29 13:12:38;;;;;;;18.45;15.90;;;12.40;98.30;;;;;;5061599;28;20076;-71
2022/11/29 13:15:20;;;;;;;23.17;16.48;;;12.30;98.50;;;;;;5059674;28;20083;-70
2022/11/29 13:18:07;;;;;;;21.58;16.23;;;12.30;98.30;;;;;;5060432;28;20535;-73
2022/11/29 13:21:06;;;;;;;20.52;15.15;;;12.40;98.20;;;;;;5061215;28;20024;-73
2022/11/29 13:24:11;;;;;;;19.63;16.00;;;12.50;98.20;;;;;;5067587;28;20041;-70